sensor_id;sensor_type;location;lat;lon;timestamp;temperature;humidity
81315;DHT22;72214;52.510;5.718;2023-09-19T00:01:09;15.50;79.40
81315;DHT22;72214;52.510;5.718;2023-09-19T00:03:38;15.50;79.40
81315;DHT22;72214;52.510;5.718;2023-09-19T00:06:08;15.40;79.40
81315;DHT22;72214;52.510;5.718;2023-09-19T00:08:39;15.40;79.40
81315;DHT22;72214;52.510;5.718;2023-09-19T00:11:12;15.40;79.30
81315;DHT22;72214;52.510;5.718;2023-09-19T00:13:42;15.30;79.30
81315;DHT22;72214;52.510;5.718;2023-09-19T00:16:11;15.30;79.30
81315;DHT22;72214;52.510;5.718;2023-09-19T00:18:41;15.30;79.30
81315;DHT22;72214;52.510;5.718;2023-09-19T00:21:10;15.30;79.30
81315;DHT22;72214;52.510;5.718;2023-09-19T00:23:41;15.20;79.20
81315;DHT22;72214;52.510;5.718;2023-09-19T00:26:13;15.20;79.20
81315;DHT22;72214;52.510;5.718;2023-09-19T00:28:47;15.20;79.10
81315;DHT22;72214;52.510;5.718;2023-09-19T00:31:16;15.10;79.10
81315;DHT22;72214;52.510;5.718;2023-09-19T00:33:45;15.10;79.10
81315;DHT22;72214;52.510;5.718;2023-09-19T00:36:15;15.00;79.10
81315;DHT22;72214;52.510;5.718;2023-09-19T00:38:44;15.00;79.20
81315;DHT22;72214;52.510;5.718;2023-09-19T00:41:16;15.00;79.00
81315;DHT22;72214;52.510;5.718;2023-09-19T00:43:45;15.00;79.10
81315;DHT22;72214;52.510;5.718;2023-09-19T00:46:17;15.00;79.00
81315;DHT22;72214;52.510;5.718;2023-09-19T00:48:47;14.90;79.00
81315;DHT22;72214;52.510;5.718;2023-09-19T00:51:16;14.90;79.00
81315;DHT22;72214;52.510;5.718;2023-09-19T00:53:48;14.90;79.00
81315;DHT22;72214;52.510;5.718;2023-09-19T00:56:21;14.90;78.90
81315;DHT22;72214;52.510;5.718;2023-09-19T00:58:51;14.80;78.90
81315;DHT22;72214;52.510;5.718;2023-09-19T01:01:20;14.80;79.00
81315;DHT22;72214;52.510;5.718;2023-09-19T01:03:51;14.80;78.90
81315;DHT22;72214;52.510;5.718;2023-09-19T01:06:20;14.80;78.90
81315;DHT22;72214;52.510;5.718;2023-09-19T01:08:50;14.70;78.90
81315;DHT22;72214;52.510;5.718;2023-09-19T01:11:31;14.70;78.90
81315;DHT22;72214;52.510;5.718;2023-09-19T01:14:11;14.70;78.90
81315;DHT22;72214;52.510;5.718;2023-09-19T01:16:48;14.70;78.90
81315;DHT22;72214;52.510;5.718;2023-09-19T01:19:53;14.70;78.80
81315;DHT22;72214;52.510;5.718;2023-09-19T01:22:33;14.70;78.80
81315;DHT22;72214;52.510;5.718;2023-09-19T01:25:28;14.60;78.90
81315;DHT22;72214;52.510;5.718;2023-09-19T01:28:20;14.60;78.80
81315;DHT22;72214;52.510;5.718;2023-09-19T01:30:56;14.60;78.90
81315;DHT22;72214;52.510;5.718;2023-09-19T01:33:27;14.60;78.90
81315;DHT22;72214;52.510;5.718;2023-09-19T01:36:00;14.60;78.80
81315;DHT22;72214;52.510;5.718;2023-09-19T01:38:29;14.60;78.80
81315;DHT22;72214;52.510;5.718;2023-09-19T01:41:05;14.60;78.80
81315;DHT22;72214;52.510;5.718;2023-09-19T01:43:42;14.50;78.80
81315;DHT22;72214;52.510;5.718;2023-09-19T01:46:16;14.50;78.80
81315;DHT22;72214;52.510;5.718;2023-09-19T01:48:53;14.50;78.80
81315;DHT22;72214;52.510;5.718;2023-09-19T01:51:32;14.50;78.80
81315;DHT22;72214;52.510;5.718;2023-09-19T01:54:04;14.50;78.90
81315;DHT22;72214;52.510;5.718;2023-09-19T01:56:42;14.50;78.80
81315;DHT22;72214;52.510;5.718;2023-09-19T01:59:17;14.50;78.80
81315;DHT22;72214;52.510;5.718;2023-09-19T02:01:52;14.50;78.90
81315;DHT22;72214;52.510;5.718;2023-09-19T02:04:22;14.50;78.80
81315;DHT22;72214;52.510;5.718;2023-09-19T02:06:51;14.50;78.80
81315;DHT22;72214;52.510;5.718;2023-09-19T02:09:21;14.50;78.80
81315;DHT22;72214;52.510;5.718;2023-09-19T02:11:51;14.40;78.80
81315;DHT22;72214;52.510;5.718;2023-09-19T02:14:22;14.40;78.90
81315;DHT22;72214;52.510;5.718;2023-09-19T02:16:53;14.40;78.90
81315;DHT22;72214;52.510;5.718;2023-09-19T02:19:22;14.40;78.80
81315;DHT22;72214;52.510;5.718;2023-09-19T02:21:52;14.40;78.80
81315;DHT22;72214;52.510;5.718;2023-09-19T02:24:21;14.40;78.80
81315;DHT22;72214;52.510;5.718;2023-09-19T02:26:53;14.40;78.90
81315;DHT22;72214;52.510;5.718;2023-09-19T02:29:25;14.40;78.90
81315;DHT22;72214;52.510;5.718;2023-09-19T02:31:57;14.40;78.80
81315;DHT22;72214;52.510;5.718;2023-09-19T02:34:28;14.40;78.80
81315;DHT22;72214;52.510;5.718;2023-09-19T02:36:58;14.40;78.70
81315;DHT22;72214;52.510;5.718;2023-09-19T02:39:27;14.40;78.80
81315;DHT22;72214;52.510;5.718;2023-09-19T02:41:57;14.40;78.70
81315;DHT22;72214;52.510;5.718;2023-09-19T02:44:26;14.50;78.70
81315;DHT22;72214;52.510;5.718;2023-09-19T02:46:58;14.50;78.60
81315;DHT22;72214;52.510;5.718;2023-09-19T02:49:28;14.50;78.60
81315;DHT22;72214;52.510;5.718;2023-09-19T02:51:57;14.50;78.60
81315;DHT22;72214;52.510;5.718;2023-09-19T02:54:27;14.50;78.60
81315;DHT22;72214;52.510;5.718;2023-09-19T02:56:56;14.50;78.60
81315;DHT22;72214;52.510;5.718;2023-09-19T02:59:25;14.50;78.60
81315;DHT22;72214;52.510;5.718;2023-09-19T03:01:54;14.50;78.60
81315;DHT22;72214;52.510;5.718;2023-09-19T03:04:26;14.50;78.60
81315;DHT22;72214;52.510;5.718;2023-09-19T03:06:57;14.50;78.70
81315;DHT22;72214;52.510;5.718;2023-09-19T03:09:27;14.40;78.70
81315;DHT22;72214;52.510;5.718;2023-09-19T03:11:57;14.40;78.70
81315;DHT22;72214;52.510;5.718;2023-09-19T03:14:27;14.40;78.70
81315;DHT22;72214;52.510;5.718;2023-09-19T03:17:01;14.40;78.80
81315;DHT22;72214;52.510;5.718;2023-09-19T03:19:33;14.40;78.80
81315;DHT22;72214;52.510;5.718;2023-09-19T03:22:04;14.40;78.80
81315;DHT22;72214;52.510;5.718;2023-09-19T03:24:33;14.40;78.80
81315;DHT22;72214;52.510;5.718;2023-09-19T03:29:33;14.40;78.80
81315;DHT22;72214;52.510;5.718;2023-09-19T03:32:05;14.40;78.80
81315;DHT22;72214;52.510;5.718;2023-09-19T03:34:39;14.40;78.70
81315;DHT22;72214;52.510;5.718;2023-09-19T03:37:10;14.40;78.70
81315;DHT22;72214;52.510;5.718;2023-09-19T03:39:39;14.40;78.70
81315;DHT22;72214;52.510;5.718;2023-09-19T03:42:09;14.40;78.80
81315;DHT22;72214;52.510;5.718;2023-09-19T03:44:38;14.40;78.80
81315;DHT22;72214;52.510;5.718;2023-09-19T03:47:07;14.40;78.80
81315;DHT22;72214;52.510;5.718;2023-09-19T03:49:39;14.40;78.80
81315;DHT22;72214;52.510;5.718;2023-09-19T03:52:08;14.40;78.80
81315;DHT22;72214;52.510;5.718;2023-09-19T03:54:37;14.30;78.80
81315;DHT22;72214;52.510;5.718;2023-09-19T03:57:07;14.30;78.80
81315;DHT22;72214;52.510;5.718;2023-09-19T03:59:39;14.30;78.80
81315;DHT22;72214;52.510;5.718;2023-09-19T04:02:10;14.30;78.70
81315;DHT22;72214;52.510;5.718;2023-09-19T04:04:52;14.30;78.80
81315;DHT22;72214;52.510;5.718;2023-09-19T04:07:23;14.30;78.70
81315;DHT22;72214;52.510;5.718;2023-09-19T04:09:55;14.30;78.70
81315;DHT22;72214;52.510;5.718;2023-09-19T04:12:24;14.30;78.70
81315;DHT22;72214;52.510;5.718;2023-09-19T04:14:53;14.30;78.70
81315;DHT22;72214;52.510;5.718;2023-09-19T04:17:23;14.30;78.80
81315;DHT22;72214;52.510;5.718;2023-09-19T04:19:54;14.30;78.80
81315;DHT22;72214;52.510;5.718;2023-09-19T04:22:24;14.30;78.80
81315;DHT22;72214;52.510;5.718;2023-09-19T04:24:53;14.30;78.90
81315;DHT22;72214;52.510;5.718;2023-09-19T04:27:22;14.30;78.80
81315;DHT22;72214;52.510;5.718;2023-09-19T04:29:52;14.30;78.80
81315;DHT22;72214;52.510;5.718;2023-09-19T04:32:28;14.20;78.90
81315;DHT22;72214;52.510;5.718;2023-09-19T04:35:01;14.20;78.80
81315;DHT22;72214;52.510;5.718;2023-09-19T04:37:32;14.20;78.90
81315;DHT22;72214;52.510;5.718;2023-09-19T04:40:01;14.20;78.90
81315;DHT22;72214;52.510;5.718;2023-09-19T04:42:32;14.10;78.90
81315;DHT22;72214;52.510;5.718;2023-09-19T04:45:01;14.10;78.90
81315;DHT22;72214;52.510;5.718;2023-09-19T04:47:31;14.10;79.00
81315;DHT22;72214;52.510;5.718;2023-09-19T04:50:03;14.10;79.00
81315;DHT22;72214;52.510;5.718;2023-09-19T04:52:32;14.10;79.00
81315;DHT22;72214;52.510;5.718;2023-09-19T04:55:02;14.00;79.00
81315;DHT22;72214;52.510;5.718;2023-09-19T04:57:31;14.00;79.00
81315;DHT22;72214;52.510;5.718;2023-09-19T05:00:00;14.00;79.00
81315;DHT22;72214;52.510;5.718;2023-09-19T05:02:33;13.90;79.00
81315;DHT22;72214;52.510;5.718;2023-09-19T05:05:06;13.90;78.90
81315;DHT22;72214;52.510;5.718;2023-09-19T05:07:35;13.90;78.90
81315;DHT22;72214;52.510;5.718;2023-09-19T05:10:06;13.90;78.90
81315;DHT22;72214;52.510;5.718;2023-09-19T05:12:36;13.90;78.90
81315;DHT22;72214;52.510;5.718;2023-09-19T05:15:07;13.90;78.90
81315;DHT22;72214;52.510;5.718;2023-09-19T05:17:36;13.90;78.90
81315;DHT22;72214;52.510;5.718;2023-09-19T05:20:10;13.90;78.80
81315;DHT22;72214;52.510;5.718;2023-09-19T05:22:57;13.90;78.80
81315;DHT22;72214;52.510;5.718;2023-09-19T05:25:28;13.90;78.80
81315;DHT22;72214;52.510;5.718;2023-09-19T05:27:58;13.90;78.80
81315;DHT22;72214;52.510;5.718;2023-09-19T05:30:29;13.90;78.70
81315;DHT22;72214;52.510;5.718;2023-09-19T05:32:59;13.90;78.70
81315;DHT22;72214;52.510;5.718;2023-09-19T05:35:31;13.90;78.70
81315;DHT22;72214;52.510;5.718;2023-09-19T05:38:00;13.90;78.70
81315;DHT22;72214;52.510;5.718;2023-09-19T05:40:31;13.90;78.70
81315;DHT22;72214;52.510;5.718;2023-09-19T05:43:01;14.00;78.70
81315;DHT22;72214;52.510;5.718;2023-09-19T05:45:32;14.00;78.70
81315;DHT22;72214;52.510;5.718;2023-09-19T05:48:08;14.00;78.70
81315;DHT22;72214;52.510;5.718;2023-09-19T05:50:40;14.00;78.60
81315;DHT22;72214;52.510;5.718;2023-09-19T05:53:09;14.00;78.60
81315;DHT22;72214;52.510;5.718;2023-09-19T05:55:41;14.00;78.70
81315;DHT22;72214;52.510;5.718;2023-09-19T05:58:10;14.10;78.60
81315;DHT22;72214;52.510;5.718;2023-09-19T06:00:40;14.10;78.60
81315;DHT22;72214;52.510;5.718;2023-09-19T06:03:10;14.10;78.60
81315;DHT22;72214;52.510;5.718;2023-09-19T06:05:43;14.10;78.60
81315;DHT22;72214;52.510;5.718;2023-09-19T06:08:15;14.10;78.60
81315;DHT22;72214;52.510;5.718;2023-09-19T06:10:45;14.00;78.60
81315;DHT22;72214;52.510;5.718;2023-09-19T06:13:15;14.00;78.70
81315;DHT22;72214;52.510;5.718;2023-09-19T06:15:44;14.10;78.70
81315;DHT22;72214;52.510;5.718;2023-09-19T06:18:14;14.10;78.60
81315;DHT22;72214;52.510;5.718;2023-09-19T06:20:49;14.10;78.60
81315;DHT22;72214;52.510;5.718;2023-09-19T06:23:18;14.10;78.60
81315;DHT22;72214;52.510;5.718;2023-09-19T06:25:50;14.10;78.60
81315;DHT22;72214;52.510;5.718;2023-09-19T06:28:19;14.10;78.60
81315;DHT22;72214;52.510;5.718;2023-09-19T06:30:51;14.10;78.60
81315;DHT22;72214;52.510;5.718;2023-09-19T06:33:21;14.10;78.50
81315;DHT22;72214;52.510;5.718;2023-09-19T06:35:53;14.10;78.60
81315;DHT22;72214;52.510;5.718;2023-09-19T06:38:25;14.10;78.50
81315;DHT22;72214;52.510;5.718;2023-09-19T06:40:54;14.10;78.50
81315;DHT22;72214;52.510;5.718;2023-09-19T06:43:23;14.10;78.50
81315;DHT22;72214;52.510;5.718;2023-09-19T06:45:53;14.10;78.50
81315;DHT22;72214;52.510;5.718;2023-09-19T06:48:23;14.20;78.50
81315;DHT22;72214;52.510;5.718;2023-09-19T06:50:56;14.20;78.50
81315;DHT22;72214;52.510;5.718;2023-09-19T06:53:28;14.30;78.40
81315;DHT22;72214;52.510;5.718;2023-09-19T06:55:58;14.30;78.40
81315;DHT22;72214;52.510;5.718;2023-09-19T06:58:27;14.40;78.30
81315;DHT22;72214;52.510;5.718;2023-09-19T07:00:56;14.50;78.20
81315;DHT22;72214;52.510;5.718;2023-09-19T07:03:25;14.50;78.20
81315;DHT22;72214;52.510;5.718;2023-09-19T07:05:57;14.50;78.20
81315;DHT22;72214;52.510;5.718;2023-09-19T07:08:26;14.60;78.10
81315;DHT22;72214;52.510;5.718;2023-09-19T07:10:56;14.60;78.10
81315;DHT22;72214;52.510;5.718;2023-09-19T07:13:26;14.60;78.10
81315;DHT22;72214;52.510;5.718;2023-09-19T07:15:55;14.70;78.10
81315;DHT22;72214;52.510;5.718;2023-09-19T07:18:27;14.70;78.20
81315;DHT22;72214;52.510;5.718;2023-09-19T07:20:59;14.80;78.10
81315;DHT22;72214;52.510;5.718;2023-09-19T07:23:31;14.80;78.10
81315;DHT22;72214;52.510;5.718;2023-09-19T07:26:01;14.90;78.10
81315;DHT22;72214;52.510;5.718;2023-09-19T07:28:31;14.90;78.10
81315;DHT22;72214;52.510;5.718;2023-09-19T07:31:02;14.90;78.00
81315;DHT22;72214;52.510;5.718;2023-09-19T07:33:33;15.00;78.00
81315;DHT22;72214;52.510;5.718;2023-09-19T07:36:05;15.00;78.00
81315;DHT22;72214;52.510;5.718;2023-09-19T07:38:34;15.00;78.00
81315;DHT22;72214;52.510;5.718;2023-09-19T07:41:03;15.00;78.10
81315;DHT22;72214;52.510;5.718;2023-09-19T07:43:33;15.10;78.00
81315;DHT22;72214;52.510;5.718;2023-09-19T07:46:05;15.20;78.00
81315;DHT22;72214;52.510;5.718;2023-09-19T07:48:36;15.20;78.00
81315;DHT22;72214;52.510;5.718;2023-09-19T07:51:09;15.30;78.00
81315;DHT22;72214;52.510;5.718;2023-09-19T07:53:38;15.30;78.00
81315;DHT22;72214;52.510;5.718;2023-09-19T07:56:09;15.40;78.00
81315;DHT22;72214;52.510;5.718;2023-09-19T07:58:39;15.40;77.90
81315;DHT22;72214;52.510;5.718;2023-09-19T08:01:10;15.50;77.90
81315;DHT22;72214;52.510;5.718;2023-09-19T08:03:40;15.50;77.90
81315;DHT22;72214;52.510;5.718;2023-09-19T08:06:12;15.50;77.90
81315;DHT22;72214;52.510;5.718;2023-09-19T08:08:43;15.60;77.90
81315;DHT22;72214;52.510;5.718;2023-09-19T08:11:12;15.60;77.90
81315;DHT22;72214;52.510;5.718;2023-09-19T08:13:42;15.60;77.90
81315;DHT22;72214;52.510;5.718;2023-09-19T08:16:15;15.70;77.80
81315;DHT22;72214;52.510;5.718;2023-09-19T08:18:47;15.80;77.80
81315;DHT22;72214;52.510;5.718;2023-09-19T08:21:23;15.80;77.80
81315;DHT22;72214;52.510;5.718;2023-09-19T08:23:55;16.00;77.70
81315;DHT22;72214;52.510;5.718;2023-09-19T08:26:24;16.00;77.70
81315;DHT22;72214;52.510;5.718;2023-09-19T08:28:54;16.10;77.70
81315;DHT22;72214;52.510;5.718;2023-09-19T08:31:23;16.10;77.60
81315;DHT22;72214;52.510;5.718;2023-09-19T08:33:52;16.20;77.60
81315;DHT22;72214;52.510;5.718;2023-09-19T08:36:24;16.20;77.60
81315;DHT22;72214;52.510;5.718;2023-09-19T08:38:53;16.30;77.70
81315;DHT22;72214;52.510;5.718;2023-09-19T08:41:22;16.40;77.60
81315;DHT22;72214;52.510;5.718;2023-09-19T08:43:52;16.40;77.50
81315;DHT22;72214;52.510;5.718;2023-09-19T08:46:24;16.50;77.50
81315;DHT22;72214;52.510;5.718;2023-09-19T08:49:02;16.50;77.50
81315;DHT22;72214;52.510;5.718;2023-09-19T08:51:42;16.50;77.40
81315;DHT22;72214;52.510;5.718;2023-09-19T08:54:21;16.60;77.30
81315;DHT22;72214;52.510;5.718;2023-09-19T08:56:53;16.60;77.30
81315;DHT22;72214;52.510;5.718;2023-09-19T08:59:23;16.70;77.30
81315;DHT22;72214;52.510;5.718;2023-09-19T09:01:55;16.80;77.20
81315;DHT22;72214;52.510;5.718;2023-09-19T09:04:25;16.80;77.20
81315;DHT22;72214;52.510;5.718;2023-09-19T09:06:57;16.90;77.10
81315;DHT22;72214;52.510;5.718;2023-09-19T09:09:28;16.90;77.10
81315;DHT22;72214;52.510;5.718;2023-09-19T09:11:58;17.00;77.00
81315;DHT22;72214;52.510;5.718;2023-09-19T09:14:28;17.00;77.00
81315;DHT22;72214;52.510;5.718;2023-09-19T09:16:58;17.00;76.90
81315;DHT22;72214;52.510;5.718;2023-09-19T09:19:30;17.00;76.90
81315;DHT22;72214;52.510;5.718;2023-09-19T09:22:10;17.10;76.90
81315;DHT22;72214;52.510;5.718;2023-09-19T09:24:51;17.20;76.80
81315;DHT22;72214;52.510;5.718;2023-09-19T09:27:21;17.20;76.80
81315;DHT22;72214;52.510;5.718;2023-09-19T09:29:52;17.30;76.80
81315;DHT22;72214;52.510;5.718;2023-09-19T09:35:06;17.40;76.50
81315;DHT22;72214;52.510;5.718;2023-09-19T09:37:38;17.40;76.50
81315;DHT22;72214;52.510;5.718;2023-09-19T09:40:09;17.50;76.50
81315;DHT22;72214;52.510;5.718;2023-09-19T09:43:02;17.50;76.40
81315;DHT22;72214;52.510;5.718;2023-09-19T09:45:32;17.50;76.40
81315;DHT22;72214;52.510;5.718;2023-09-19T09:48:14;17.50;76.40
81315;DHT22;72214;52.510;5.718;2023-09-19T09:50:47;17.50;76.40
81315;DHT22;72214;52.510;5.718;2023-09-19T09:53:26;17.50;76.20
81315;DHT22;72214;52.510;5.718;2023-09-19T09:56:02;17.50;76.20
81315;DHT22;72214;52.510;5.718;2023-09-19T09:58:33;17.60;76.20
81315;DHT22;72214;52.510;5.718;2023-09-19T10:01:03;17.50;76.20
81315;DHT22;72214;52.510;5.718;2023-09-19T10:03:42;17.50;76.10
81315;DHT22;72214;52.510;5.718;2023-09-19T10:06:15;17.50;76.10
81315;DHT22;72214;52.510;5.718;2023-09-19T10:09:06;17.60;76.00
81315;DHT22;72214;52.510;5.718;2023-09-19T10:11:44;17.70;75.90
81315;DHT22;72214;52.510;5.718;2023-09-19T10:14:16;17.80;75.80
81315;DHT22;72214;52.510;5.718;2023-09-19T10:16:47;17.80;75.70
81315;DHT22;72214;52.510;5.718;2023-09-19T10:19:20;17.80;75.70
81315;DHT22;72214;52.510;5.718;2023-09-19T10:21:54;17.80;75.60
81315;DHT22;72214;52.510;5.718;2023-09-19T10:24:28;17.80;75.60
81315;DHT22;72214;52.510;5.718;2023-09-19T10:26:59;17.80;75.50
81315;DHT22;72214;52.510;5.718;2023-09-19T10:29:32;17.80;75.50
81315;DHT22;72214;52.510;5.718;2023-09-19T10:32:03;18.00;75.40
81315;DHT22;72214;52.510;5.718;2023-09-19T10:34:36;18.00;75.30
81315;DHT22;72214;52.510;5.718;2023-09-19T10:37:08;18.00;75.20
81315;DHT22;72214;52.510;5.718;2023-09-19T10:39:46;18.10;75.20
81315;DHT22;72214;52.510;5.718;2023-09-19T10:42:19;18.10;75.00
81315;DHT22;72214;52.510;5.718;2023-09-19T10:44:52;18.10;74.90
81315;DHT22;72214;52.510;5.718;2023-09-19T10:47:22;18.10;74.90
81315;DHT22;72214;52.510;5.718;2023-09-19T10:49:51;18.20;75.00
81315;DHT22;72214;52.510;5.718;2023-09-19T10:52:23;18.20;74.90
81315;DHT22;72214;52.510;5.718;2023-09-19T10:54:57;18.30;74.80
81315;DHT22;72214;52.510;5.718;2023-09-19T10:57:27;18.30;74.80
81315;DHT22;72214;52.510;5.718;2023-09-19T11:00:02;18.40;74.70
81315;DHT22;72214;52.510;5.718;2023-09-19T11:03:17;18.50;74.70
81315;DHT22;72214;52.510;5.718;2023-09-19T11:06:06;18.50;74.50
81315;DHT22;72214;52.510;5.718;2023-09-19T11:08:55;18.60;74.50
81315;DHT22;72214;52.510;5.718;2023-09-19T11:11:48;18.60;74.40
81315;DHT22;72214;52.510;5.718;2023-09-19T11:14:39;18.60;74.40
81315;DHT22;72214;52.510;5.718;2023-09-19T11:20:22;18.70;74.30
81315;DHT22;72214;52.510;5.718;2023-09-19T11:23:19;18.70;74.30
81315;DHT22;72214;52.510;5.718;2023-09-19T11:25:52;18.80;74.10
81315;DHT22;72214;52.510;5.718;2023-09-19T11:28:34;18.80;74.10
81315;DHT22;72214;52.510;5.718;2023-09-19T11:34:45;18.90;73.70
81315;DHT22;72214;52.510;5.718;2023-09-19T11:40:13;18.90;73.70
81315;DHT22;72214;52.510;5.718;2023-09-19T11:42:45;19.00;73.80
81315;DHT22;72214;52.510;5.718;2023-09-19T11:48:26;19.00;73.50
81315;DHT22;72214;52.510;5.718;2023-09-19T11:50:56;18.90;73.70
81315;DHT22;72214;52.510;5.718;2023-09-19T11:53:31;18.90;73.70
81315;DHT22;72214;52.510;5.718;2023-09-19T11:56:06;18.90;73.70
81315;DHT22;72214;52.510;5.718;2023-09-19T11:58:37;19.00;73.60
81315;DHT22;72214;52.510;5.718;2023-09-19T12:01:06;19.10;73.50
81315;DHT22;72214;52.510;5.718;2023-09-19T12:03:46;19.20;73.40
81315;DHT22;72214;52.510;5.718;2023-09-19T12:06:16;19.40;73.20
81315;DHT22;72214;52.510;5.718;2023-09-19T12:08:48;19.40;73.10
81315;DHT22;72214;52.510;5.718;2023-09-19T12:11:21;19.50;73.00
81315;DHT22;72214;52.510;5.718;2023-09-19T12:13:51;19.50;73.00
81315;DHT22;72214;52.510;5.718;2023-09-19T12:16:25;19.50;72.90
81315;DHT22;72214;52.510;5.718;2023-09-19T12:19:17;19.50;72.90
81315;DHT22;72214;52.510;5.718;2023-09-19T12:21:55;19.50;72.70
81315;DHT22;72214;52.510;5.718;2023-09-19T12:24:26;19.50;72.90
81315;DHT22;72214;52.510;5.718;2023-09-19T12:27:00;19.40;73.00
81315;DHT22;72214;52.510;5.718;2023-09-19T12:29:31;19.40;72.90
81315;DHT22;72214;52.510;5.718;2023-09-19T12:32:03;19.30;73.00
81315;DHT22;72214;52.510;5.718;2023-09-19T12:34:35;19.30;73.00
81315;DHT22;72214;52.510;5.718;2023-09-19T12:37:10;19.20;72.90
81315;DHT22;72214;52.510;5.718;2023-09-19T12:39:48;19.20;72.90
81315;DHT22;72214;52.510;5.718;2023-09-19T12:42:20;19.10;72.90
81315;DHT22;72214;52.510;5.718;2023-09-19T12:44:51;19.10;72.90
81315;DHT22;72214;52.510;5.718;2023-09-19T12:47:24;19.00;72.90
81315;DHT22;72214;52.510;5.718;2023-09-19T12:50:09;19.00;72.90
81315;DHT22;72214;52.510;5.718;2023-09-19T12:52:52;19.00;72.70
81315;DHT22;72214;52.510;5.718;2023-09-19T12:55:23;19.00;72.90
81315;DHT22;72214;52.510;5.718;2023-09-19T12:57:58;18.90;72.90
81315;DHT22;72214;52.510;5.718;2023-09-19T13:00:35;18.90;72.80
81315;DHT22;72214;52.510;5.718;2023-09-19T13:03:12;18.80;72.80
81315;DHT22;72214;52.510;5.718;2023-09-19T13:05:53;18.80;72.80
81315;DHT22;72214;52.510;5.718;2023-09-19T13:08:25;18.80;72.80
81315;DHT22;72214;52.510;5.718;2023-09-19T13:11:09;18.90;72.80
81315;DHT22;72214;52.510;5.718;2023-09-19T13:13:41;19.00;72.60
81315;DHT22;72214;52.510;5.718;2023-09-19T13:16:11;19.00;72.50
81315;DHT22;72214;52.510;5.718;2023-09-19T13:18:45;19.10;72.40
81315;DHT22;72214;52.510;5.718;2023-09-19T13:21:28;19.10;72.40
81315;DHT22;72214;52.510;5.718;2023-09-19T13:24:27;19.20;72.20
81315;DHT22;72214;52.510;5.718;2023-09-19T13:26:57;19.20;72.20
81315;DHT22;72214;52.510;5.718;2023-09-19T13:29:26;19.20;72.30
81315;DHT22;72214;52.510;5.718;2023-09-19T13:31:55;19.20;72.20
81315;DHT22;72214;52.510;5.718;2023-09-19T13:34:24;19.20;72.20
81315;DHT22;72214;52.510;5.718;2023-09-19T13:36:58;19.20;72.30
81315;DHT22;72214;52.510;5.718;2023-09-19T13:39:27;19.20;72.30
81315;DHT22;72214;52.510;5.718;2023-09-19T13:41:56;19.20;72.20
81315;DHT22;72214;52.510;5.718;2023-09-19T13:44:25;19.20;72.30
81315;DHT22;72214;52.510;5.718;2023-09-19T13:46:55;19.20;72.20
81315;DHT22;72214;52.510;5.718;2023-09-19T13:49:24;19.20;72.20
81315;DHT22;72214;52.510;5.718;2023-09-19T13:51:54;19.20;72.10
81315;DHT22;72214;52.510;5.718;2023-09-19T13:54:30;19.20;72.10
81315;DHT22;72214;52.510;5.718;2023-09-19T13:56:59;19.20;72.20
81315;DHT22;72214;52.510;5.718;2023-09-19T13:59:28;19.20;72.20
81315;DHT22;72214;52.510;5.718;2023-09-19T14:01:57;19.10;72.20
81315;DHT22;72214;52.510;5.718;2023-09-19T14:04:26;19.10;72.20
81315;DHT22;72214;52.510;5.718;2023-09-19T14:06:57;19.10;72.30
81315;DHT22;72214;52.510;5.718;2023-09-19T14:09:29;19.00;72.30
81315;DHT22;72214;52.510;5.718;2023-09-19T14:11:58;19.00;72.30
81315;DHT22;72214;52.510;5.718;2023-09-19T14:14:27;19.00;72.30
81315;DHT22;72214;52.510;5.718;2023-09-19T14:16:57;18.90;72.40
81315;DHT22;72214;52.510;5.718;2023-09-19T14:19:27;18.90;72.50
81315;DHT22;72214;52.510;5.718;2023-09-19T14:21:56;18.90;72.50
81315;DHT22;72214;52.510;5.718;2023-09-19T14:24:31;18.80;72.60
81315;DHT22;72214;52.510;5.718;2023-09-19T14:27:00;18.80;72.70
81315;DHT22;72214;52.510;5.718;2023-09-19T14:29:30;18.70;72.80
81315;DHT22;72214;52.510;5.718;2023-09-19T14:31:59;18.70;72.90
81315;DHT22;72214;52.510;5.718;2023-09-19T14:34:28;18.70;73.00
81315;DHT22;72214;52.510;5.718;2023-09-19T14:36:57;18.60;73.00
81315;DHT22;72214;52.510;5.718;2023-09-19T14:39:29;18.60;73.10
81315;DHT22;72214;52.510;5.718;2023-09-19T14:41:58;18.50;73.20
81315;DHT22;72214;52.510;5.718;2023-09-19T14:44:28;18.50;73.30
81315;DHT22;72214;52.510;5.718;2023-09-19T14:46:57;18.40;73.40
81315;DHT22;72214;52.510;5.718;2023-09-19T14:49:26;18.40;73.40
81315;DHT22;72214;52.510;5.718;2023-09-19T14:51:55;18.40;73.50
81315;DHT22;72214;52.510;5.718;2023-09-19T14:54:24;18.40;73.50
81315;DHT22;72214;52.510;5.718;2023-09-19T14:56:58;18.40;73.50
81315;DHT22;72214;52.510;5.718;2023-09-19T14:59:30;18.40;73.40
81315;DHT22;72214;52.510;5.718;2023-09-19T15:02:00;18.40;73.50
81315;DHT22;72214;52.510;5.718;2023-09-19T15:04:30;18.40;73.40
81315;DHT22;72214;52.510;5.718;2023-09-19T15:06:59;18.40;73.50
81315;DHT22;72214;52.510;5.718;2023-09-19T15:09:28;18.40;73.50
81315;DHT22;72214;52.510;5.718;2023-09-19T15:12:02;18.30;73.50
81315;DHT22;72214;52.510;5.718;2023-09-19T15:14:32;18.30;73.40
81315;DHT22;72214;52.510;5.718;2023-09-19T15:17:01;18.30;73.50
81315;DHT22;72214;52.510;5.718;2023-09-19T15:19:31;18.30;73.50
81315;DHT22;72214;52.510;5.718;2023-09-19T15:22:01;18.20;73.50
81315;DHT22;72214;52.510;5.718;2023-09-19T15:24:30;18.20;73.60
81315;DHT22;72214;52.510;5.718;2023-09-19T15:27:02;18.20;73.70
81315;DHT22;72214;52.510;5.718;2023-09-19T15:29:32;18.10;74.00
81315;DHT22;72214;52.510;5.718;2023-09-19T15:32:01;18.00;74.20
81315;DHT22;72214;52.510;5.718;2023-09-19T15:34:30;17.90;74.50
81315;DHT22;72214;52.510;5.718;2023-09-19T15:36:59;17.80;74.80
81315;DHT22;72214;52.510;5.718;2023-09-19T15:39:30;17.60;75.10
81315;DHT22;72214;52.510;5.718;2023-09-19T15:42:05;17.50;75.40
81315;DHT22;72214;52.510;5.718;2023-09-19T15:44:35;17.50;75.60
81315;DHT22;72214;52.510;5.718;2023-09-19T15:47:04;17.40;75.70
81315;DHT22;72214;52.510;5.718;2023-09-19T15:49:34;17.30;75.80
81315;DHT22;72214;52.510;5.718;2023-09-19T15:52:04;17.20;75.90
81315;DHT22;72214;52.510;5.718;2023-09-19T15:54:34;17.20;76.00
81315;DHT22;72214;52.510;5.718;2023-09-19T15:57:10;17.20;76.10
81315;DHT22;72214;52.510;5.718;2023-09-19T15:59:40;17.20;76.00
81315;DHT22;72214;52.510;5.718;2023-09-19T16:02:10;17.20;76.00
81315;DHT22;72214;52.510;5.718;2023-09-19T16:04:39;17.20;76.10
81315;DHT22;72214;52.510;5.718;2023-09-19T16:07:10;17.20;76.10
81315;DHT22;72214;52.510;5.718;2023-09-19T16:09:39;17.20;76.10
81315;DHT22;72214;52.510;5.718;2023-09-19T16:12:11;17.20;76.10
81315;DHT22;72214;52.510;5.718;2023-09-19T16:14:40;17.20;76.20
81315;DHT22;72214;52.510;5.718;2023-09-19T16:17:09;17.20;76.20
81315;DHT22;72214;52.510;5.718;2023-09-19T16:19:39;17.20;76.20